Bruceville, Indiana
Current Conditions -  °F | °C
As of 6:53 PM on Saturday 25 Oct 2014 (Local Time) from KLWV Reporting Station
Haze Haze  
Wind Chill: 66°   Ceiling: Unl
Heat Index: 66°   Visibility: 1mi
Dew Point: 51°   Wind: 5mph
Humidity: 59%   Direction: 270°W
Pressure: 29.99"   Gusts: NA
Location:  38.76°N, 87.42°W
Report Text: KLWV 252353Z AUTO 27004KT 1SM HZ CLR 19/11 A2999 RMK AO2 SLP152 T01890106 10261 20189 53004
Loading
Personal Weather Stations






























Interactive Weather Map
Tropical Storm Tracking
New forecast layout! Learn more

10-Day Weather Forecast

Advertisements
Track Severe Weather on mobile